地図

経路データ

SID SEASON NUMBER BASIN SUBBASIN NAME ISO_TIME NATURE LAT LON WMO_WIND WMO_PRES WMO_AGENCY TRACK_TYPE DIST2LAND LANDFALL IFLAG USA_AGENCY USA_ATCF_ID USA_LAT USA_LON USA_RECORD USA_STATUS USA_WIND USA_PRES USA_SSHS USA_R34_NE USA_R34_SE USA_R34_SW USA_R34_NW USA_R50_NE USA_R50_SE USA_R50_SW USA_R50_NW USA_R64_NE USA_R64_SE USA_R64_SW USA_R64_NW USA_POCI USA_ROCI USA_RMW USA_EYE TOKYO_LAT TOKYO_LON TOKYO_GRADE TOKYO_WIND TOKYO_PRES TOKYO_R50_DIR TOKYO_R50_LONG TOKYO_R50_SHORT TOKYO_R30_DIR TOKYO_R30_LONG TOKYO_R30_SHORT TOKYO_LAND CMA_LAT CMA_LON CMA_CAT CMA_WIND CMA_PRES HKO_LAT HKO_LON HKO_CAT HKO_WIND HKO_PRES NEWDELHI_LAT NEWDELHI_LON NEWDELHI_GRADE NEWDELHI_WIND NEWDELHI_PRES NEWDELHI_CI NEWDELHI_DP NEWDELHI_POCI REUNION_LAT REUNION_LON REUNION_TYPE REUNION_WIND REUNION_PRES REUNION_TNUM REUNION_CI REUNION_RMW REUNION_R34_NE REUNION_R34_SE REUNION_R34_SW REUNION_R34_NW REUNION_R50_NE REUNION_R50_SE REUNION_R50_SW REUNION_R50_NW REUNION_R64_NE REUNION_R64_SE REUNION_R64_SW REUNION_R64_NW BOM_LAT BOM_LON BOM_TYPE BOM_WIND BOM_PRES BOM_TNUM BOM_CI BOM_RMW BOM_R34_NE BOM_R34_SE BOM_R34_SW BOM_R34_NW BOM_R50_NE BOM_R50_SE BOM_R50_SW BOM_R50_NW BOM_R64_NE BOM_R64_SE BOM_R64_SW BOM_R64_NW BOM_ROCI BOM_POCI BOM_EYE BOM_POS_METHOD BOM_PRES_METHOD NADI_LAT NADI_LON NADI_CAT NADI_WIND NADI_PRES WELLINGTON_LAT WELLINGTON_LON WELLINGTON_WIND WELLINGTON_PRES DS824_LAT DS824_LON DS824_STAGE DS824_WIND DS824_PRES TD9636_LAT TD9636_LON TD9636_STAGE TD9636_WIND TD9636_PRES TD9635_LAT TD9635_LON TD9635_WIND TD9635_PRES TD9635_ROCI NEUMANN_LAT NEUMANN_LON NEUMANN_CLASS NEUMANN_WIND NEUMANN_PRES MLC_LAT MLC_LON MLC_CLASS MLC_WIND MLC_PRES USA_GUST BOM_GUST BOM_GUST_PER REUNION_GUST REUNION_GUST_PER USA_SEAHGT USA_SEARAD_NE USA_SEARAD_SE USA_SEARAD_SW USA_SEARAD_NW STORM_SPEED STORM_DIR
1866229N20271 1866 17 NA NA NOT_NAMED 1866-08-17 06:00:00 TS 20.4000 -88.8000 spur-other 0 0 _____________O -1 20.4000 -88.8000 TS 50 13 288
1866229N20271 1866 17 NA NA NOT_NAMED 1866-08-17 09:00:00 TS 20.5950 -89.4448 spur-other 0 0 _____________P -1 20.6007 -89.4494 TS 50 12 285
1866229N20271 1866 17 NA NA NOT_NAMED 1866-08-17 12:00:00 TS 20.7000 -90.0000 spur-other 0 0 _____________O -1 20.7000 -90.0000 TS 50 9 273
1866229N20271 1866 17 NA NA NOT_NAMED 1866-08-17 15:00:00 TS 20.6371 -90.3878 spur-other 0 0 _____________P -1 20.6371 -90.3878 TS 55 7 253
1866229N20271 1866 17 NA GM NOT_NAMED 1866-08-17 18:00:00 TS 20.5000 -90.7000 spur-other 20 20 _____________O -1 20.5000 -90.7000 TS 60 7 249
1866229N20271 1866 17 NA GM NOT_NAMED 1866-08-17 21:00:00 TS 20.3999 -91.0500 spur-other 52 52 _____________P -1 20.3999 -91.0500 TS 62 7 253
1866229N20271 1866 17 NA GM NOT_NAMED 1866-08-18 00:00:00 TS 20.3000 -91.4000 spur-other 93 93 _____________O -1 20.3000 -91.4000 HU 65 7 253
1866229N20271 1866 17 NA GM NOT_NAMED 1866-08-18 03:00:00 TS 20.1999 -91.7500 spur-other 118 118 _____________P -1 20.1999 -91.7500 HU 65 7 253
1866229N20271 1866 17 NA GM NOT_NAMED 1866-08-18 06:00:00 TS 20.1000 -92.1000 spur-other 148 148 _____________O -1 20.1000 -92.1000 HU 65 7 253
1866229N20271 1866 17 NA GM NOT_NAMED 1866-08-18 09:00:00 TS 20.0000 -92.4575 spur-other 156 145 _____________P -1 20.0000 -92.4575 HU 65 7 253
1866229N20271 1866 17 NA GM NOT_NAMED 1866-08-18 12:00:00 TS 19.9000 -92.8000 spur-other 145 137 _____________O -1 19.9000 -92.8000 HU 65 6 252
1866229N20271 1866 17 NA GM NOT_NAMED 1866-08-18 15:00:00 TS 19.8074 -93.0999 spur-other 140 138 _____________P -1 19.8074 -93.0999 HU 65 6 251
1866229N20271 1866 17 NA GM NOT_NAMED 1866-08-18 18:00:00 TS 19.7000 -93.4000 spur-other 143 139 _____________O -1 19.7000 -93.4000 HU 65 7 247
1866229N20271 1866 17 NA GM NOT_NAMED 1866-08-18 21:00:00 TS 19.5499 -93.7350 spur-other 134 123 _____________P -1 19.5499 -93.7350 HU 60 7 246
1866229N20271 1866 17 NA GM NOT_NAMED 1866-08-19 00:00:00 TS 19.4000 -94.1000 spur-other 124 94 _____________O -1 19.4000 -94.1000 TS 55 8 251
1866229N20271 1866 17 NA GM NOT_NAMED 1866-08-19 03:00:00 TS 19.3000 -94.5074 spur-other 94 64 _____________P -1 19.3000 -94.5074 TS 47 8 255
1866229N20271 1866 17 NA GM NOT_NAMED 1866-08-19 06:00:00 TS 19.2000 -94.9000 spur-other 64 44 _____________O -1 19.2000 -94.9000 TS 40 7 249
1866229N20271 1866 17 NA GM NOT_NAMED 1866-08-19 09:00:00 TS 19.0497 -95.1849 spur-other 33 22 _____________P -1 19.0497 -95.1849 TS 37 6 242
1866229N20271 1866 17 NA GM NOT_NAMED 1866-08-19 12:00:00 TS 18.9000 -95.5000 spur-other 22 0 _____________O -1 18.9000 -95.5000 TS 35 8 250
1866229N20271 1866 17 NA NA NOT_NAMED 1866-08-19 15:00:00 TS 18.7880 -95.9551 spur-other 0 0 _____________P -1 18.7880 -95.9551 TS 32 10 258
1866229N20271 1866 17 NA NA NOT_NAMED 1866-08-19 18:00:00 TS 18.7000 -96.5000 spur-other 0 _____________O -1 18.7000 -96.5000 TD 30 10 260

IBTrACS Databaseについて

本データベースは、米国NOAAが公開する1842年以降の世界の熱帯低気圧のベストトラックデータアーカイブInternational Best Track Archive for Climate Stewardship (IBTrACS)を、ウェブで閲覧しやすい形式に変換したものです。

最終更新日:2021-12-03